createdAt,value
2019-03-10T00:00:43.762Z,76.20
2019-03-10T00:01:28.002Z,74.70
2019-03-10T00:02:10.347Z,70.20
2019-03-10T00:02:48.968Z,73.70
2019-03-10T00:03:27.759Z,70.30
2019-03-10T00:04:07.247Z,67.20
2019-03-10T00:04:46.044Z,67.30
2019-03-10T00:05:24.834Z,66.90
2019-03-10T00:06:04.319Z,67.40
2019-03-10T00:06:43.758Z,67.40
2019-03-10T00:07:22.932Z,68.70
2019-03-10T00:08:02.269Z,67.90
2019-03-10T00:08:41.667Z,72.30
2019-03-10T00:09:21.204Z,71.20
2019-03-10T00:10:00.590Z,71.30
2019-03-10T00:10:39.605Z,71.40
2019-03-10T00:11:18.276Z,71.10
2019-03-10T00:11:57.040Z,72.50
2019-03-10T00:12:35.668Z,72.00
2019-03-10T00:13:15.002Z,73.10
2019-03-10T00:13:54.341Z,74.70
2019-03-10T00:14:33.807Z,74.70
2019-03-10T00:15:13.000Z,74.90
2019-03-10T00:15:52.458Z,76.20
2019-03-10T00:16:31.942Z,76.40
2019-03-10T00:17:11.621Z,77.30
2019-03-10T00:17:50.918Z,75.70
2019-03-10T00:18:32.314Z,74.10
2019-03-10T00:19:12.955Z,73.40
2019-03-10T00:19:53.646Z,73.00
2019-03-10T00:20:34.571Z,72.20
2019-03-10T00:21:14.623Z,70.20
2019-03-10T00:21:54.082Z,70.10
2019-03-10T00:22:33.394Z,70.30
2019-03-10T00:23:12.780Z,71.00
2019-03-10T00:23:52.259Z,70.80
2019-03-10T00:24:31.217Z,70.70
2019-03-10T00:25:09.971Z,71.50
2019-03-10T00:25:48.855Z,73.10
2019-03-10T00:26:27.696Z,73.70
2019-03-10T00:27:06.545Z,75.10
2019-03-10T00:27:47.108Z,57.10
2019-03-10T00:28:27.417Z,57.70
2019-03-10T00:29:06.625Z,58.10
2019-03-10T00:29:45.916Z,58.50
2019-03-10T00:30:25.560Z,58.90
2019-03-10T00:31:04.723Z,59.40
2019-03-10T00:31:44.262Z,59.70
2019-03-10T00:32:27.063Z,59.40
2019-03-10T00:33:09.081Z,59.40
2019-03-10T00:33:47.821Z,57.70
2019-03-10T00:34:27.236Z,57.40
2019-03-10T00:35:06.555Z,57.00
2019-03-10T00:35:45.939Z,56.60
2019-03-10T00:36:25.421Z,56.20
2019-03-10T00:37:05.540Z,55.90
2019-03-10T00:37:45.523Z,55.80
2019-03-10T00:38:50.492Z,55.60
2019-03-10T00:39:57.505Z,55.10
2019-03-10T00:41:11.733Z,55.00
2019-03-10T00:42:33.279Z,54.50
2019-03-10T00:44:05.999Z,54.40
2019-03-10T00:45:14.395Z,55.50
2019-03-10T00:46:46.736Z,57.60
2019-03-10T00:48:10.906Z,58.20
2019-03-10T00:49:50.283Z,59.40
2019-03-10T00:51:16.785Z,59.80
2019-03-10T00:52:27.784Z,57.20
2019-03-10T00:53:07.372Z,56.20
2019-03-10T00:53:46.671Z,55.50
2019-03-10T00:54:28.682Z,55.10
2019-03-10T00:55:09.410Z,54.80
2019-03-10T00:55:48.774Z,54.40
2019-03-10T00:56:28.216Z,54.20
2019-03-10T00:57:07.411Z,54.50
2019-03-10T00:57:46.607Z,55.10
2019-03-10T00:58:26.047Z,55.30
2019-03-10T00:59:05.433Z,55.50
2019-03-10T00:59:45.031Z,55.60
2019-03-10T01:00:24.406Z,55.40
2019-03-10T01:01:03.918Z,55.30
2019-03-10T01:01:42.689Z,55.20
2019-03-10T01:02:22.091Z,55.10
2019-03-10T01:03:00.859Z,55.40
2019-03-10T01:03:39.841Z,54.70
2019-03-10T01:04:19.202Z,54.20
2019-03-10T01:04:57.927Z,53.90
2019-03-10T01:05:37.351Z,53.40
2019-03-10T01:06:17.054Z,53.20
2019-03-10T01:06:56.428Z,53.30
2019-03-10T01:07:35.957Z,53.40
2019-03-10T01:08:15.754Z,53.30
2019-03-10T01:08:54.637Z,53.20
2019-03-10T01:09:33.612Z,53.00
2019-03-10T01:10:30.827Z,52.90
2019-03-10T01:11:11.982Z,52.90
2019-03-10T01:11:51.900Z,52.80
2019-03-10T01:12:31.297Z,52.80
2019-03-10T01:13:10.288Z,52.60
2019-03-10T01:13:50.078Z,52.80
2019-03-10T01:14:31.609Z,52.80
2019-03-10T01:15:10.899Z,52.90
2019-03-10T01:15:50.353Z,52.80
2019-03-10T01:16:29.594Z,53.00
2019-03-10T01:17:09.167Z,53.00
2019-03-10T01:17:48.493Z,53.40
2019-03-10T01:18:27.707Z,53.40
2019-03-10T01:19:07.092Z,53.40
2019-03-10T01:19:46.616Z,53.30
2019-03-10T01:20:29.068Z,53.30
2019-03-10T01:21:08.019Z,53.30
2019-03-10T01:21:47.512Z,54.00
2019-03-10T01:22:27.258Z,53.50
2019-03-10T01:23:06.443Z,53.60
2019-03-10T01:23:46.178Z,53.60
2019-03-10T01:24:25.311Z,53.90
2019-03-10T01:25:04.535Z,53.90
2019-03-10T01:25:44.337Z,54.00
2019-03-10T01:26:24.116Z,54.10
2019-03-10T01:27:03.096Z,54.20
2019-03-10T01:27:42.268Z,54.60
2019-03-10T01:28:21.285Z,55.10
2019-03-10T01:29:01.187Z,55.40
2019-03-10T01:29:40.295Z,55.00
2019-03-10T01:30:23.019Z,55.20
2019-03-10T01:31:22.902Z,55.30
2019-03-10T01:32:40.128Z,56.20
2019-03-10T01:33:31.554Z,57.10
2019-03-10T01:35:05.405Z,56.80
2019-03-10T01:35:47.251Z,57.20
2019-03-10T01:36:24.128Z,58.40
2019-03-10T01:37:07.464Z,59.10
2019-03-10T01:37:50.328Z,58.20
2019-03-10T01:38:29.695Z,58.60
2019-03-10T01:39:10.607Z,58.90
2019-03-10T01:39:55.446Z,59.10
2019-03-10T01:40:35.352Z,59.60
2019-03-10T01:41:14.146Z,59.10
2019-03-10T01:41:53.069Z,59.30
2019-03-10T01:42:35.276Z,59.70
2019-03-10T01:43:14.078Z,59.60
2019-03-10T01:43:53.312Z,59.50
2019-03-10T01:44:32.417Z,59.60
2019-03-10T01:45:12.701Z,59.70
2019-03-10T01:46:02.707Z,59.60
2019-03-10T01:46:42.341Z,59.90
2019-03-10T01:47:22.202Z,60.20
2019-03-10T01:48:02.088Z,60.40
2019-03-10T01:48:41.393Z,60.60
2019-03-10T01:49:20.639Z,60.50
2019-03-10T01:49:59.870Z,60.70
2019-03-10T01:50:40.365Z,60.90
2019-03-10T01:51:19.795Z,61.00
2019-03-10T01:52:00.004Z,60.60
2019-03-10T01:52:41.474Z,61.00
2019-03-10T01:53:25.543Z,61.10
2019-03-10T01:54:01.291Z,61.20
2019-03-10T01:54:40.716Z,61.00
2019-03-10T01:55:20.273Z,61.30
2019-03-10T01:55:59.757Z,61.40
2019-03-10T01:56:40.679Z,61.60
2019-03-10T01:57:20.149Z,61.60
2019-03-10T01:57:59.640Z,61.70
2019-03-10T01:58:39.267Z,61.90
2019-03-10T01:59:18.540Z,61.80
2019-03-10T01:59:57.925Z,62.40
2019-03-10T02:00:37.855Z,62.20
2019-03-10T02:01:17.433Z,62.20
2019-03-10T02:01:56.975Z,62.40
2019-03-10T02:02:36.611Z,62.70
2019-03-10T02:03:15.960Z,63.50
2019-03-10T02:03:55.676Z,62.40
2019-03-10T02:04:39.838Z,62.60
2019-03-10T02:05:20.349Z,62.50
2019-03-10T02:05:59.948Z,62.90
2019-03-10T02:06:39.581Z,63.20
2019-03-10T02:07:19.032Z,63.20
2019-03-10T02:07:57.918Z,62.70
2019-03-10T02:08:36.941Z,62.80
2019-03-10T02:09:16.007Z,63.00
2019-03-10T02:09:55.488Z,63.20
2019-03-10T02:10:34.267Z,63.10
2019-03-10T02:11:13.095Z,63.20
2019-03-10T02:11:53.629Z,63.20
2019-03-10T02:12:33.876Z,63.10
2019-03-10T02:13:12.557Z,63.10
2019-03-10T02:13:51.921Z,63.00
2019-03-10T02:14:31.491Z,63.60
2019-03-10T02:15:12.113Z,63.20
2019-03-10T02:15:51.504Z,63.20
2019-03-10T02:16:30.913Z,63.40
2019-03-10T02:17:10.424Z,63.80
2019-03-10T02:17:51.143Z,64.80
2019-03-10T02:18:30.759Z,65.10
2019-03-10T02:19:10.228Z,65.00
2019-03-10T02:19:49.115Z,65.90
2019-03-10T02:20:28.970Z,66.30
2019-03-10T02:21:08.264Z,66.30
2019-03-10T02:21:47.900Z,67.10
2019-03-10T02:22:27.017Z,66.10
2019-03-10T02:23:06.334Z,65.90
2019-03-10T02:23:45.180Z,66.10
2019-03-10T02:24:24.631Z,66.30
2019-03-10T02:25:03.813Z,66.20
2019-03-10T02:25:43.041Z,66.50
2019-03-10T02:26:22.538Z,66.30
2019-03-10T02:27:01.729Z,66.50
2019-03-10T02:27:41.104Z,66.70
2019-03-10T02:28:21.995Z,66.30
2019-03-10T02:29:01.360Z,66.60
2019-03-10T02:29:40.853Z,66.50
2019-03-10T02:30:21.270Z,66.70
2019-03-10T02:31:00.259Z,66.60
2019-03-10T02:31:38.987Z,66.90
2019-03-10T02:32:18.538Z,66.80
2019-03-10T02:32:57.478Z,67.00
2019-03-10T02:33:36.431Z,66.50
2019-03-10T02:34:15.428Z,66.90
2019-03-10T02:34:54.856Z,66.60
2019-03-10T02:35:34.314Z,66.70
2019-03-10T02:36:13.181Z,66.60
2019-03-10T02:36:52.489Z,66.90
2019-03-10T02:37:32.033Z,66.90
2019-03-10T02:38:11.148Z,66.80
2019-03-10T02:38:49.999Z,67.30
2019-03-10T02:39:28.669Z,67.10
2019-03-10T02:40:11.411Z,67.20
2019-03-10T02:40:50.588Z,66.80
2019-03-10T02:41:29.971Z,67.20
2019-03-10T02:42:10.178Z,67.10
2019-03-10T02:42:49.764Z,67.60
2019-03-10T02:43:28.871Z,67.60
2019-03-10T02:44:08.056Z,67.90
2019-03-10T02:44:46.956Z,67.70
2019-03-10T02:45:25.948Z,68.50
2019-03-10T02:46:05.241Z,68.20
2019-03-10T02:46:44.462Z,68.90
2019-03-10T02:47:24.361Z,68.50
2019-03-10T02:48:03.955Z,69.30
2019-03-10T02:48:42.782Z,69.20
2019-03-10T02:49:21.482Z,69.00
2019-03-10T02:50:00.484Z,68.80
2019-03-10T02:50:39.448Z,68.80
2019-03-10T02:51:18.927Z,69.20
2019-03-10T02:51:58.177Z,69.50
2019-03-10T02:52:38.299Z,68.70
2019-03-10T02:53:17.008Z,68.90
2019-03-10T02:53:56.753Z,68.20
2019-03-10T02:54:36.209Z,68.80
2019-03-10T02:55:15.949Z,68.50
2019-03-10T02:55:55.338Z,69.30
2019-03-10T02:56:34.638Z,69.90
2019-03-10T02:57:13.452Z,68.80
2019-03-10T02:57:52.494Z,68.50
2019-03-10T02:58:31.664Z,68.70
2019-03-10T02:59:10.453Z,68.40
2019-03-10T02:59:49.287Z,69.00
2019-03-10T03:00:28.592Z,69.50
2019-03-10T03:01:08.019Z,69.60
2019-03-10T03:01:48.042Z,69.30
2019-03-10T03:02:28.320Z,69.40
2019-03-10T03:03:07.043Z,69.90
2019-03-10T03:03:46.054Z,70.00
2019-03-10T03:04:27.023Z,69.70
2019-03-10T03:05:06.521Z,70.10
2019-03-10T03:05:45.822Z,70.00
2019-03-10T03:06:25.242Z,69.60
2019-03-10T03:07:04.571Z,69.90
2019-03-10T03:07:44.032Z,69.30
2019-03-10T03:08:23.364Z,69.50
2019-03-10T03:09:03.125Z,70.30
2019-03-10T03:09:43.045Z,70.30
2019-03-10T03:10:21.985Z,70.10
2019-03-10T03:11:02.047Z,69.40
2019-03-10T03:11:41.145Z,70.00
2019-03-10T03:12:19.943Z,68.60
2019-03-10T03:12:59.306Z,68.90
2019-03-10T03:13:38.382Z,69.10
2019-03-10T03:14:17.973Z,69.20
2019-03-10T03:14:57.379Z,69.30
2019-03-10T03:15:37.032Z,69.50
2019-03-10T03:16:18.631Z,69.30
2019-03-10T03:16:58.949Z,69.20
2019-03-10T03:17:38.636Z,69.00
2019-03-10T03:18:18.464Z,68.50
2019-03-10T03:18:58.647Z,69.10
2019-03-10T03:19:37.906Z,68.90
2019-03-10T03:20:16.698Z,69.60
2019-03-10T03:20:56.208Z,68.70
2019-03-10T03:21:43.083Z,68.10
2019-03-10T03:22:16.641Z,68.80
2019-03-10T03:22:56.455Z,68.60
2019-03-10T03:23:36.129Z,69.10
2019-03-10T03:24:16.121Z,69.10
2019-03-10T03:24:55.669Z,69.40
2019-03-10T03:25:35.074Z,69.30
2019-03-10T03:26:13.847Z,69.50
2019-03-10T03:26:52.761Z,69.80
2019-03-10T03:27:31.779Z,69.10
2019-03-10T03:28:11.493Z,69.20
2019-03-10T03:28:50.201Z,69.50
2019-03-10T03:29:29.445Z,68.90
2019-03-10T03:30:09.176Z,68.70
2019-03-10T03:30:48.625Z,68.60
2019-03-10T03:31:28.032Z,69.60
2019-03-10T03:32:07.659Z,69.50
2019-03-10T03:32:46.881Z,69.10
2019-03-10T03:33:25.702Z,68.90
2019-03-10T03:34:04.617Z,69.20
2019-03-10T03:34:44.518Z,68.80
2019-03-10T03:35:53.848Z,68.80
2019-03-10T03:36:39.209Z,68.90
2019-03-10T03:37:20.883Z,68.70
2019-03-10T03:38:00.298Z,69.00
2019-03-10T03:38:44.637Z,69.10
2019-03-10T03:39:35.247Z,68.50
2019-03-10T03:40:14.546Z,69.10
2019-03-10T03:40:57.254Z,69.20
2019-03-10T03:41:36.023Z,69.20
2019-03-10T03:42:15.323Z,68.40
2019-03-10T03:42:55.247Z,69.00
2019-03-10T03:43:34.028Z,69.20
2019-03-10T03:44:12.821Z,69.00
2019-03-10T03:44:52.577Z,69.20
2019-03-10T03:45:31.421Z,70.00
2019-03-10T03:46:10.849Z,68.90
2019-03-10T03:46:50.077Z,68.50
2019-03-10T03:47:29.222Z,68.80
2019-03-10T03:48:08.166Z,67.80
2019-03-10T03:48:47.534Z,67.40
2019-03-10T03:49:26.696Z,68.30
2019-03-10T03:50:06.141Z,67.90
2019-03-10T03:50:45.466Z,68.10
2019-03-10T03:51:24.246Z,68.70
2019-03-10T03:52:03.337Z,67.60
2019-03-10T03:52:42.555Z,67.00
2019-03-10T03:53:22.208Z,67.90
2019-03-10T03:54:01.906Z,68.20
2019-03-10T03:54:41.194Z,68.50
2019-03-10T03:55:21.631Z,68.60
2019-03-10T03:56:01.994Z,68.10
2019-03-10T03:56:42.301Z,68.50
2019-03-10T03:57:22.030Z,68.40
2019-03-10T03:58:03.424Z,67.90
2019-03-10T03:58:42.864Z,68.50
2019-03-10T03:59:23.137Z,67.30
2019-03-10T04:00:21.552Z,67.50
2019-03-10T04:01:07.628Z,68.50
2019-03-10T04:02:06.591Z,68.30
2019-03-10T04:02:45.470Z,67.70
2019-03-10T04:03:24.446Z,67.80
2019-03-10T04:04:03.657Z,68.40
2019-03-10T04:04:43.622Z,67.80
2019-03-10T04:05:22.926Z,67.20
2019-03-10T04:06:01.627Z,68.20
2019-03-10T04:06:41.059Z,67.70
2019-03-10T04:07:20.471Z,68.50
2019-03-10T04:08:00.443Z,67.10
2019-03-10T04:08:39.921Z,66.90
2019-03-10T04:09:18.895Z,68.30
2019-03-10T04:09:57.663Z,69.10
2019-03-10T04:10:36.569Z,68.00
2019-03-10T04:11:16.677Z,68.90
2019-03-10T04:11:55.729Z,69.50
2019-03-10T04:12:35.573Z,69.00
2019-03-10T04:13:14.580Z,69.30
2019-03-10T04:13:54.930Z,69.00
2019-03-10T04:14:35.486Z,67.90
2019-03-10T04:15:14.380Z,67.20
2019-03-10T04:15:53.719Z,67.60
2019-03-10T04:16:33.157Z,67.20
2019-03-10T04:17:12.511Z,66.70
2019-03-10T04:17:51.971Z,67.00
2019-03-10T04:18:30.786Z,66.90
2019-03-10T04:19:10.101Z,67.10
2019-03-10T04:19:48.935Z,67.20
2019-03-10T04:20:27.586Z,67.20
2019-03-10T04:21:06.558Z,67.60
2019-03-10T04:21:45.456Z,66.10
2019-03-10T04:22:25.322Z,67.10
2019-03-10T04:23:04.625Z,67.00
2019-03-10T04:23:44.193Z,67.80
2019-03-10T04:24:24.049Z,66.10
2019-03-10T04:25:04.304Z,67.20
2019-03-10T04:25:43.727Z,67.70
2019-03-10T04:26:23.193Z,67.70
2019-03-10T04:27:02.576Z,67.00
2019-03-10T04:27:41.922Z,67.30
2019-03-10T04:28:21.326Z,68.00
2019-03-10T04:29:01.073Z,67.70
2019-03-10T04:29:40.194Z,66.90
2019-03-10T04:30:18.916Z,67.10
2019-03-10T04:30:58.937Z,67.40
2019-03-10T04:31:39.946Z,66.60
2019-03-10T04:32:19.885Z,67.00
2019-03-10T04:32:59.667Z,67.80
2019-03-10T04:33:39.321Z,66.40
2019-03-10T04:34:19.013Z,67.00
2019-03-10T04:34:59.349Z,67.50
2019-03-10T04:35:38.709Z,67.20
2019-03-10T04:36:17.416Z,67.10
2019-03-10T04:36:57.717Z,66.40
2019-03-10T04:37:36.553Z,66.70
2019-03-10T04:38:15.453Z,66.60
2019-03-10T04:38:54.838Z,67.00
2019-03-10T04:39:35.547Z,66.80
2019-03-10T04:40:15.203Z,66.40
2019-03-10T04:40:55.188Z,66.70
2019-03-10T04:41:34.334Z,66.80
2019-03-10T04:42:13.901Z,66.50
2019-03-10T04:42:53.416Z,66.70
2019-03-10T04:43:32.232Z,66.30
2019-03-10T04:44:13.201Z,66.50
2019-03-10T04:44:52.641Z,66.60
2019-03-10T04:45:35.308Z,66.00
2019-03-10T04:46:14.780Z,65.40
2019-03-10T04:46:54.044Z,66.00
2019-03-10T04:47:33.414Z,66.60
2019-03-10T04:48:12.941Z,66.20
2019-03-10T04:48:52.455Z,66.70
2019-03-10T04:49:31.104Z,66.40
2019-03-10T04:50:09.996Z,66.20
2019-03-10T04:50:50.289Z,66.80
2019-03-10T04:51:29.188Z,66.50
2019-03-10T04:52:08.280Z,66.20
2019-03-10T04:52:49.611Z,65.90
2019-03-10T04:53:28.551Z,65.90
2019-03-10T04:54:07.972Z,65.80
2019-03-10T04:55:05.864Z,66.40
2019-03-10T04:56:22.394Z,65.30
2019-03-10T04:57:13.118Z,65.10
2019-03-10T04:58:07.624Z,66.30
2019-03-10T04:58:52.476Z,65.10
2019-03-10T04:59:31.699Z,65.90
2019-03-10T05:00:11.506Z,66.20
2019-03-10T05:00:53.537Z,65.40
2019-03-10T05:01:32.908Z,65.60
2019-03-10T05:02:11.825Z,66.30
2019-03-10T05:02:50.697Z,66.20
2019-03-10T05:03:30.925Z,65.80
2019-03-10T05:04:09.778Z,65.80
2019-03-10T05:04:48.980Z,65.70
2019-03-10T05:05:28.202Z,65.70
2019-03-10T05:06:08.013Z,64.70
2019-03-10T05:06:47.235Z,65.20
2019-03-10T05:07:27.016Z,65.40
2019-03-10T05:08:06.996Z,65.70
2019-03-10T05:08:48.200Z,65.30
2019-03-10T05:09:27.486Z,65.90
2019-03-10T05:10:07.272Z,65.40
2019-03-10T05:10:51.377Z,64.50
2019-03-10T05:11:30.201Z,64.90
2019-03-10T05:12:09.648Z,65.60
2019-03-10T05:12:48.528Z,65.30
2019-03-10T05:13:27.847Z,64.90
2019-03-10T05:14:07.983Z,64.10
2019-03-10T05:14:46.881Z,64.20
2019-03-10T05:15:26.211Z,64.20
2019-03-10T05:16:05.595Z,64.00
2019-03-10T05:16:45.275Z,63.80
2019-03-10T05:17:25.018Z,63.60
2019-03-10T05:18:04.787Z,64.10
2019-03-10T05:18:43.934Z,64.10
2019-03-10T05:19:22.837Z,64.00
2019-03-10T05:20:01.695Z,64.00
2019-03-10T05:20:40.701Z,63.60
2019-03-10T05:21:19.969Z,63.50
2019-03-10T05:21:59.212Z,63.70
2019-03-10T05:22:38.568Z,63.10
2019-03-10T05:23:34.079Z,64.00
2019-03-10T05:24:18.494Z,63.90
2019-03-10T05:24:57.748Z,63.60
2019-03-10T05:25:36.556Z,63.60
2019-03-10T05:26:16.577Z,63.60
2019-03-10T05:27:15.366Z,63.80
2019-03-10T05:27:54.887Z,62.80
2019-03-10T05:28:36.700Z,63.70
2019-03-10T05:29:16.005Z,63.60
2019-03-10T05:29:56.648Z,63.20
2019-03-10T05:30:35.427Z,63.70
2019-03-10T05:31:15.560Z,63.60
2019-03-10T05:31:56.380Z,63.80
2019-03-10T05:32:35.384Z,63.90
2019-03-10T05:33:18.530Z,63.70
2019-03-10T05:34:01.352Z,63.80
2019-03-10T05:34:45.351Z,63.70
2019-03-10T05:35:24.377Z,63.30
2019-03-10T05:36:03.308Z,63.30
2019-03-10T05:36:42.327Z,63.20
2019-03-10T05:37:22.127Z,62.90
2019-03-10T05:38:05.622Z,63.60
2019-03-10T05:38:45.735Z,63.50
2019-03-10T05:39:24.986Z,63.40
2019-03-10T05:40:07.372Z,63.40
2019-03-10T05:40:48.603Z,63.70
2019-03-10T05:41:28.115Z,63.60
2019-03-10T05:42:07.582Z,64.00
2019-03-10T05:42:46.450Z,64.00
2019-03-10T05:43:25.210Z,64.80
2019-03-10T05:44:03.978Z,64.50
2019-03-10T05:44:42.945Z,64.30
2019-03-10T05:45:22.100Z,64.30
2019-03-10T05:46:03.058Z,64.80
2019-03-10T05:46:42.400Z,64.20
2019-03-10T05:47:21.821Z,63.90
2019-03-10T05:48:01.093Z,63.70
2019-03-10T05:48:40.627Z,63.40
2019-03-10T05:49:19.742Z,63.50
2019-03-10T05:49:58.447Z,63.50
2019-03-10T05:50:37.851Z,63.90
2019-03-10T05:51:17.454Z,63.70
2019-03-10T05:51:57.684Z,63.10
2019-03-10T05:52:39.494Z,63.60
2019-03-10T05:53:19.441Z,63.00
2019-03-10T05:53:59.364Z,62.90
2019-03-10T05:54:38.773Z,63.30
2019-03-10T05:55:17.765Z,63.10
2019-03-10T05:55:56.615Z,63.10
2019-03-10T05:56:35.372Z,62.70
2019-03-10T05:57:14.090Z,63.10
2019-03-10T05:57:53.204Z,63.30
2019-03-10T05:58:32.426Z,62.90
2019-03-10T05:59:11.781Z,63.10
2019-03-10T05:59:51.089Z,63.30
2019-03-10T06:00:30.458Z,63.30
2019-03-10T06:01:09.865Z,63.60
2019-03-10T06:01:49.656Z,63.70
2019-03-10T06:02:28.967Z,62.90
2019-03-10T06:03:08.946Z,62.80
2019-03-10T06:03:48.549Z,63.60
2019-03-10T06:04:28.140Z,63.90
2019-03-10T06:05:07.713Z,65.20
2019-03-10T06:05:46.688Z,64.70
2019-03-10T06:06:26.598Z,64.30
2019-03-10T06:07:05.368Z,64.50
2019-03-10T06:07:44.476Z,64.50
2019-03-10T06:08:23.576Z,64.60
2019-03-10T06:09:03.113Z,64.20
2019-03-10T06:09:42.544Z,64.10
2019-03-10T06:10:21.951Z,64.20
2019-03-10T06:11:01.567Z,64.10
2019-03-10T06:11:42.444Z,64.20
2019-03-10T06:12:21.674Z,64.20
2019-03-10T06:13:01.513Z,65.00
2019-03-10T06:13:40.766Z,63.60
2019-03-10T06:14:20.176Z,63.60
2019-03-10T06:14:59.324Z,63.70
2019-03-10T06:15:38.841Z,64.10
2019-03-10T06:16:18.109Z,64.50
2019-03-10T06:16:57.520Z,64.40
2019-03-10T06:17:36.455Z,64.50
2019-03-10T06:18:15.562Z,64.20
2019-03-10T06:18:54.736Z,63.90
2019-03-10T06:19:33.535Z,63.90
2019-03-10T06:20:12.709Z,63.90
2019-03-10T06:20:51.862Z,63.80
2019-03-10T06:21:30.689Z,64.00
2019-03-10T06:22:10.314Z,64.00
2019-03-10T06:22:50.647Z,64.90
2019-03-10T06:23:29.441Z,64.00
2019-03-10T06:24:08.252Z,63.70
2019-03-10T06:24:47.386Z,63.90
2019-03-10T06:25:27.652Z,64.00
2019-03-10T06:26:06.469Z,64.40
2019-03-10T06:26:45.480Z,64.20
2019-03-10T06:27:24.764Z,64.40
2019-03-10T06:28:04.051Z,64.10
2019-03-10T06:28:43.397Z,63.60
2019-03-10T06:29:22.469Z,64.00
2019-03-10T06:30:01.862Z,64.70
2019-03-10T06:30:41.225Z,63.40
2019-03-10T06:31:19.901Z,63.30
2019-03-10T06:31:58.714Z,63.20
2019-03-10T06:32:45.811Z,63.40
2019-03-10T06:33:24.599Z,63.80
2019-03-10T06:34:03.767Z,64.10
2019-03-10T06:34:48.422Z,64.40
2019-03-10T06:35:44.906Z,64.60
2019-03-10T06:36:29.316Z,64.50
2019-03-10T06:37:08.648Z,64.30
2019-03-10T06:37:48.390Z,63.40
2019-03-10T06:38:42.929Z,63.50
2019-03-10T06:39:22.515Z,63.50
2019-03-10T06:40:01.709Z,63.60
2019-03-10T06:40:41.384Z,63.60
2019-03-10T06:41:20.277Z,63.80
2019-03-10T06:41:58.970Z,63.60
2019-03-10T06:42:37.867Z,63.20
2019-03-10T06:43:16.958Z,63.10
2019-03-10T06:43:56.058Z,63.10
2019-03-10T06:44:34.836Z,63.10
2019-03-10T06:45:15.975Z,62.80
2019-03-10T06:45:55.271Z,62.80
2019-03-10T06:46:34.099Z,62.60
2019-03-10T06:47:15.052Z,64.10
2019-03-10T06:47:54.340Z,62.60
2019-03-10T06:48:33.665Z,62.80
2019-03-10T06:49:13.892Z,62.90
2019-03-10T06:49:52.724Z,63.00
2019-03-10T06:50:32.537Z,63.90
2019-03-10T06:51:13.650Z,64.00
2019-03-10T06:51:53.150Z,64.40
2019-03-10T06:52:32.524Z,64.20
2019-03-10T06:53:12.582Z,65.00
2019-03-10T06:53:52.963Z,64.60
2019-03-10T06:54:32.390Z,63.90
2019-03-10T06:55:13.760Z,63.50
2019-03-10T06:55:53.205Z,64.50
2019-03-10T06:56:32.015Z,65.40
2019-03-10T06:57:10.876Z,64.30
2019-03-10T06:57:50.258Z,63.70
2019-03-10T06:58:29.027Z,63.50
2019-03-10T06:59:10.912Z,63.90
2019-03-10T06:59:50.055Z,63.90
2019-03-10T07:00:29.408Z,63.90
2019-03-10T07:01:08.283Z,63.60
2019-03-10T07:01:48.375Z,63.60
2019-03-10T07:02:28.644Z,64.30
2019-03-10T07:03:12.994Z,64.30
2019-03-10T07:03:54.556Z,65.10
2019-03-10T07:04:34.401Z,64.30
2019-03-10T07:05:20.753Z,64.20
2019-03-10T07:06:05.639Z,64.20
2019-03-10T07:06:49.350Z,64.30
2019-03-10T07:07:29.293Z,65.10
2019-03-10T07:08:10.829Z,66.20
2019-03-10T07:08:52.097Z,66.00
2019-03-10T07:09:32.399Z,64.00
2019-03-10T07:10:13.894Z,64.60
2019-03-10T07:10:54.008Z,64.60
2019-03-10T07:11:34.595Z,64.30
2019-03-10T07:12:23.523Z,64.10
2019-03-10T07:13:04.425Z,65.10
2019-03-10T07:13:50.314Z,64.30
2019-03-10T07:14:32.140Z,64.10
2019-03-10T07:15:16.747Z,64.70
2019-03-10T07:15:57.134Z,64.70
2019-03-10T07:16:38.299Z,64.80
2019-03-10T07:17:20.509Z,64.20
2019-03-10T07:18:07.261Z,64.10
2019-03-10T07:18:50.572Z,64.70
2019-03-10T07:19:31.163Z,64.90
2019-03-10T07:20:17.117Z,63.90
2019-03-10T07:20:57.739Z,65.00
2019-03-10T07:21:37.089Z,63.80
2019-03-10T07:22:17.590Z,64.40
2019-03-10T07:22:57.754Z,65.00
2019-03-10T07:23:37.738Z,63.80
2019-03-10T07:24:16.546Z,65.50
2019-03-10T07:24:55.521Z,64.20
2019-03-10T07:25:34.360Z,64.10
2019-03-10T07:26:13.182Z,65.40
2019-03-10T07:26:52.670Z,64.50
2019-03-10T07:27:39.756Z,65.10
2019-03-10T07:28:27.308Z,64.10
2019-03-10T07:29:19.778Z,63.70
2019-03-10T07:30:05.573Z,64.40
2019-03-10T07:30:53.318Z,65.40
2019-03-10T07:31:38.940Z,64.10
2019-03-10T07:32:39.590Z,63.70
2019-03-10T07:33:46.152Z,63.90
2019-03-10T07:34:42.250Z,64.10
2019-03-10T07:35:42.220Z,64.00
2019-03-10T07:36:30.097Z,63.50
2019-03-10T07:37:27.535Z,64.90
2019-03-10T07:38:20.184Z,63.40
2019-03-10T07:39:18.220Z,63.40
2019-03-10T07:40:14.395Z,63.30
2019-03-10T07:41:20.899Z,63.60
2019-03-10T07:42:11.186Z,64.60
2019-03-10T07:43:12.874Z,65.40
2019-03-10T07:44:02.296Z,63.90
2019-03-10T07:44:51.762Z,64.00
2019-03-10T07:45:47.033Z,64.20
2019-03-10T07:46:41.705Z,64.90
2019-03-10T07:47:48.997Z,64.80
2019-03-10T07:48:46.357Z,63.80
2019-03-10T07:49:35.623Z,63.80
2019-03-10T07:50:38.786Z,64.70
2019-03-10T07:51:47.959Z,64.00
2019-03-10T07:52:57.362Z,64.40
2019-03-10T07:53:57.011Z,64.50
2019-03-10T07:54:54.058Z,63.90
2019-03-10T07:56:06.238Z,65.10
2019-03-10T07:57:18.599Z,63.50
2019-03-10T07:58:18.640Z,64.70
2019-03-10T07:59:27.701Z,65.20
2019-03-10T08:00:27.335Z,63.90
2019-03-10T08:01:21.792Z,64.00
2019-03-10T08:02:11.830Z,63.70
2019-03-10T08:02:59.658Z,64.30
2019-03-10T08:03:55.820Z,63.70
2019-03-10T08:04:51.130Z,64.90
2019-03-10T08:05:48.719Z,64.10
2019-03-10T08:06:55.467Z,63.60
2019-03-10T08:07:45.955Z,63.30
2019-03-10T08:09:00.422Z,64.80
2019-03-10T08:09:53.449Z,63.00
2019-03-10T08:10:46.954Z,64.20
2019-03-10T08:11:58.919Z,64.00
2019-03-10T08:12:59.767Z,64.60
2019-03-10T08:13:57.892Z,63.70
2019-03-10T08:15:10.168Z,65.70
2019-03-10T08:16:05.186Z,65.10
2019-03-10T08:17:07.271Z,63.90
2019-03-10T08:18:10.742Z,64.50
2019-03-10T08:19:04.124Z,64.40
2019-03-10T08:20:13.908Z,65.30
2019-03-10T08:21:06.898Z,63.70
2019-03-10T08:22:02.512Z,64.00
2019-03-10T08:22:49.654Z,63.50
2019-03-10T08:23:55.880Z,63.10
2019-03-10T08:24:43.599Z,63.90
2019-03-10T08:25:47.295Z,64.60
2019-03-10T08:26:42.983Z,64.80
2019-03-10T08:27:41.783Z,63.60
2019-03-10T08:28:44.521Z,65.50
2019-03-10T08:29:41.786Z,65.10
2019-03-10T08:30:45.618Z,64.30
2019-03-10T08:31:34.304Z,64.60
2019-03-10T08:32:31.878Z,64.70
2019-03-10T08:33:26.857Z,64.60
2019-03-10T08:34:22.356Z,66.60
2019-03-10T08:35:17.641Z,66.40
2019-03-10T08:36:18.285Z,66.40
2019-03-10T08:37:06.671Z,65.70
2019-03-10T08:38:01.140Z,66.40
2019-03-10T08:39:18.769Z,66.40
2019-03-10T08:40:05.604Z,66.40
2019-03-10T08:41:05.572Z,66.40
2019-03-10T08:42:01.686Z,66.40
2019-03-10T08:43:07.293Z,66.40
2019-03-10T08:44:08.666Z,66.40
2019-03-10T08:45:04.369Z,66.40
2019-03-10T08:45:50.718Z,66.40
2019-03-10T08:46:53.901Z,66.40
2019-03-10T08:47:46.245Z,66.40
2019-03-10T08:48:31.434Z,66.40
2019-03-10T08:49:46.991Z,66.40
2019-03-10T08:50:49.695Z,66.30
2019-03-10T08:52:02.883Z,66.30
2019-03-10T08:53:00.301Z,66.30
2019-03-10T08:53:46.315Z,66.30
2019-03-10T08:54:41.440Z,66.40
2019-03-10T08:55:57.756Z,66.40
2019-03-10T08:56:53.767Z,66.30
2019-03-10T08:57:57.829Z,66.30
2019-03-10T08:58:46.609Z,66.30
2019-03-10T08:59:36.996Z,67.10
2019-03-10T09:00:37.271Z,66.40
2019-03-10T09:01:35.312Z,66.40
2019-03-10T09:02:42.062Z,66.30
2019-03-10T09:03:31.155Z,66.40
2019-03-10T09:04:41.459Z,66.40
2019-03-10T09:05:43.821Z,66.60
2019-03-10T09:06:31.640Z,66.60
2019-03-10T09:07:27.150Z,66.60
2019-03-10T09:08:25.812Z,66.60
2019-03-10T09:09:32.572Z,66.60
2019-03-10T09:10:23.309Z,66.60
2019-03-10T09:11:29.899Z,66.60
2019-03-10T09:12:17.277Z,66.40
2019-03-10T09:13:07.987Z,66.50
2019-03-10T09:14:22.016Z,66.50
2019-03-10T09:15:28.670Z,66.40
2019-03-10T09:16:25.598Z,66.40
2019-03-10T09:17:16.363Z,66.40
2019-03-10T09:18:18.056Z,66.40
2019-03-10T09:19:21.360Z,66.40
2019-03-10T09:20:30.790Z,66.50
2019-03-10T09:21:37.298Z,66.50
2019-03-10T09:22:42.329Z,66.40
2019-03-10T09:23:44.778Z,66.40